createdAt,value
2022-08-18T00:02:14.570Z,98969.25
2022-08-18T00:04:49.141Z,98962.50
2022-08-18T00:07:28.022Z,98960.09
2022-08-18T00:09:55.115Z,98952.16
2022-08-18T00:12:28.357Z,98956.81
2022-08-18T00:14:55.994Z,98950.91
2022-08-18T00:17:23.002Z,98951.25
2022-08-18T00:19:50.004Z,98952.75
2022-08-18T00:22:19.723Z,98950.31
2022-08-18T00:24:49.583Z,98945.97
2022-08-18T00:27:23.146Z,98939.25
2022-08-18T00:29:52.780Z,98951.38
2022-08-18T00:32:25.676Z,98955.63
2022-08-18T00:34:53.829Z,98953.66
2022-08-18T00:37:21.672Z,98962.34
2022-08-18T00:39:51.527Z,98962.75
2022-08-18T00:42:30.128Z,98971.81
2022-08-18T00:45:04.339Z,98971.00
2022-08-18T00:47:41.254Z,98984.72
2022-08-18T00:50:17.061Z,98983.09
2022-08-18T00:52:53.647Z,98987.75
2022-08-18T00:55:21.084Z,98986.16
2022-08-18T00:57:51.047Z,98980.63
2022-08-18T01:00:18.261Z,98986.91
2022-08-18T01:02:49.824Z,98986.94
2022-08-18T01:05:24.389Z,98996.34
2022-08-18T01:07:51.474Z,98995.94
2022-08-18T01:10:21.138Z,98990.84
2022-08-18T01:12:51.172Z,99004.56
2022-08-18T01:15:28.675Z,98999.44
2022-08-18T01:18:21.597Z,98997.03
2022-08-18T01:21:20.932Z,99005.19
2022-08-18T01:23:48.783Z,99009.91
2022-08-18T01:26:17.975Z,99015.41
2022-08-18T01:28:46.377Z,99015.44
2022-08-18T01:31:34.943Z,99011.91
2022-08-18T01:34:01.490Z,99013.16
2022-08-18T01:36:29.186Z,99020.66
2022-08-18T01:38:55.794Z,99023.41
2022-08-18T01:41:30.290Z,99023.81
2022-08-18T01:43:59.952Z,99021.50
2022-08-18T01:46:29.331Z,99028.63
2022-08-18T01:48:58.593Z,99022.78
2022-08-18T01:51:38.148Z,99029.09
2022-08-18T01:54:12.313Z,99026.34
2022-08-18T01:56:40.793Z,99026.34
2022-08-18T01:59:10.473Z,99029.53
2022-08-18T02:01:45.259Z,99029.53
2022-08-18T02:04:34.566Z,99034.22
2022-08-18T02:07:05.168Z,99027.94
2022-08-18T02:09:31.736Z,99019.28
2022-08-18T02:11:58.274Z,99019.28
2022-08-18T02:14:27.336Z,99018.44
2022-08-18T02:17:01.027Z,99009.72
2022-08-18T02:19:28.848Z,99009.69
2022-08-18T02:21:55.422Z,99005.25
2022-08-18T02:24:22.028Z,99006.31
2022-08-18T02:26:48.726Z,99007.38
2022-08-18T02:29:15.261Z,99003.00
2022-08-18T02:31:41.808Z,99010.00
2022-08-18T02:34:08.413Z,98999.00
2022-08-18T02:36:34.965Z,99008.41
2022-08-18T02:39:01.579Z,99010.75
2022-08-18T02:41:29.645Z,99013.06
2022-08-18T02:43:57.367Z,99011.44
2022-08-18T02:46:24.415Z,99013.75
2022-08-18T02:48:57.211Z,99012.09
2022-08-18T02:51:26.034Z,99011.59
2022-08-18T02:53:53.847Z,99010.28
2022-08-18T02:56:33.723Z,99004.75
2022-08-18T02:59:12.379Z,98996.88
2022-08-18T03:01:42.487Z,99002.38
2022-08-18T03:04:11.693Z,98995.38
2022-08-18T03:06:39.478Z,98995.03
2022-08-18T03:09:07.978Z,99003.38
2022-08-18T03:11:35.372Z,98988.63
2022-08-18T03:14:02.312Z,98991.09
2022-08-18T03:16:32.872Z,98983.31
2022-08-18T03:19:01.205Z,98983.41
2022-08-18T03:21:30.640Z,99000.72
2022-08-18T03:24:01.440Z,99003.13
2022-08-18T03:26:30.315Z,98995.22
2022-08-18T03:28:59.995Z,99006.31
2022-08-18T03:31:29.756Z,98999.69
2022-08-18T03:33:59.542Z,99000.09
2022-08-18T03:36:30.355Z,99000.88
2022-08-18T03:38:57.270Z,98996.97
2022-08-18T03:41:43.877Z,99000.13
2022-08-18T03:44:15.021Z,99003.28
2022-08-18T03:46:44.022Z,99003.25
2022-08-18T03:49:10.931Z,99011.09
2022-08-18T03:51:38.181Z,99011.09
2022-08-18T03:54:06.672Z,99008.75
2022-08-18T03:56:36.288Z,99007.59
2022-08-18T03:59:07.874Z,99003.25
2022-08-18T04:01:41.989Z,99008.75
2022-08-18T04:04:13.569Z,99006.44
2022-08-18T04:06:57.059Z,99014.25
2022-08-18T04:09:25.732Z,99015.09
2022-08-18T04:11:52.617Z,99013.16
2022-08-18T04:14:31.968Z,99016.34
2022-08-18T04:16:59.937Z,99023.41
2022-08-18T04:19:27.810Z,99029.28
2022-08-18T04:21:56.831Z,99029.66
2022-08-18T04:24:24.085Z,99021.41
2022-08-18T04:26:51.763Z,99025.75
2022-08-18T04:29:21.503Z,99024.56
2022-08-18T04:31:50.050Z,99022.22
2022-08-18T04:34:17.566Z,99025.31
2022-08-18T04:36:44.887Z,99026.06
2022-08-18T04:39:13.242Z,99043.28
2022-08-18T04:41:43.558Z,99037.38
2022-08-18T04:44:12.496Z,99047.94
2022-08-18T04:46:42.026Z,99050.69
2022-08-18T04:49:10.321Z,99051.88
2022-08-18T04:52:37.430Z,99043.16
2022-08-18T04:54:27.003Z,99046.66
2022-08-18T04:56:55.081Z,99051.41
2022-08-18T04:59:21.795Z,99051.31
2022-08-18T05:01:48.509Z,99061.19
2022-08-18T05:04:17.392Z,99060.16
2022-08-18T05:06:45.621Z,99061.69
2022-08-18T05:09:16.336Z,99054.09
2022-08-18T05:11:44.475Z,99047.94
2022-08-18T05:14:11.953Z,99048.34
2022-08-18T05:16:47.872Z,99050.69
2022-08-18T05:19:19.864Z,99048.44
2022-08-18T05:21:52.223Z,99052.19
2022-08-18T05:24:20.813Z,99051.16
2022-08-18T05:26:49.081Z,99050.84
2022-08-18T05:29:18.396Z,99048.94
2022-08-18T05:31:47.044Z,99044.31
2022-08-18T05:34:13.721Z,99041.88
2022-08-18T05:36:49.429Z,99046.59
2022-08-18T05:39:19.169Z,99044.09
2022-08-18T05:41:51.402Z,99047.91
2022-08-18T05:44:36.655Z,99051.66
2022-08-18T05:47:12.589Z,99036.94
2022-08-18T05:49:43.258Z,99052.72
2022-08-18T05:52:23.987Z,99040.53
2022-08-18T05:55:12.926Z,99052.47
2022-08-18T05:57:48.175Z,99054.94
2022-08-18T06:00:14.912Z,99046.34
2022-08-18T06:02:52.232Z,99058.63
2022-08-18T06:05:32.739Z,99051.56
2022-08-18T06:08:03.398Z,99055.53
2022-08-18T06:10:31.263Z,99057.56
2022-08-18T06:13:01.380Z,99052.47
2022-08-18T06:15:39.703Z,99047.41
2022-08-18T06:18:21.747Z,99043.50
2022-08-18T06:21:16.374Z,99042.66
2022-08-18T06:23:54.984Z,99041.44
2022-08-18T06:26:34.620Z,99042.47
2022-08-18T06:29:28.866Z,99035.72
2022-08-18T06:32:34.293Z,99032.16
2022-08-18T06:35:10.967Z,99037.59
2022-08-18T06:38:18.342Z,99053.78
2022-08-18T06:40:47.896Z,99041.31
2022-08-18T06:43:17.058Z,99039.00
2022-08-18T06:45:51.992Z,99046.94
2022-08-18T06:48:53.898Z,99031.53
2022-08-18T06:51:23.017Z,99033.81
2022-08-18T06:54:03.201Z,99035.22
2022-08-18T06:56:47.669Z,99036.06
2022-08-18T06:59:25.015Z,99041.69
2022-08-18T07:01:59.188Z,99035.03
2022-08-18T07:04:44.468Z,99038.53
2022-08-18T07:07:17.335Z,99037.66
2022-08-18T07:09:44.604Z,99043.53
2022-08-18T07:12:11.353Z,99043.09
2022-08-18T07:14:53.891Z,99046.56
2022-08-18T07:17:43.093Z,99049.25
2022-08-18T07:20:24.733Z,99053.84
2022-08-18T07:23:08.262Z,99054.56
2022-08-18T07:25:42.453Z,99058.59
2022-08-18T07:28:29.848Z,99065.34
2022-08-18T07:31:17.253Z,99067.25
2022-08-18T07:33:51.687Z,99066.50
2022-08-18T07:36:21.558Z,99068.91
2022-08-18T07:39:04.936Z,99068.03
2022-08-18T07:41:42.771Z,99081.25
2022-08-18T07:44:27.692Z,99071.31
2022-08-18T07:47:11.526Z,99076.84
2022-08-18T07:49:54.480Z,99078.94
2022-08-18T07:52:43.914Z,99068.09
2022-08-18T07:55:37.713Z,99070.94
2022-08-18T07:58:15.462Z,99063.63
2022-08-18T08:00:59.341Z,99057.03
2022-08-18T08:03:34.239Z,99047.22
2022-08-18T08:06:20.507Z,99055.03
2022-08-18T08:09:07.268Z,99050.28
2022-08-18T08:11:55.975Z,99056.25
2022-08-18T08:14:43.056Z,99051.28
2022-08-18T08:17:32.607Z,99056.16
2022-08-18T08:20:08.689Z,99050.66
2022-08-18T08:22:53.268Z,99055.44
2022-08-18T08:25:55.806Z,99046.38
2022-08-18T08:28:40.568Z,99051.53
2022-08-18T08:31:36.669Z,99043.59
2022-08-18T08:34:25.792Z,99037.31
2022-08-18T08:37:09.381Z,99041.34
2022-08-18T08:39:57.892Z,99035.44
2022-08-18T08:42:47.070Z,99035.00
2022-08-18T08:45:23.684Z,99046.06
2022-08-18T08:48:09.487Z,99038.94
2022-08-18T08:50:45.389Z,99044.47
2022-08-18T08:53:34.894Z,99052.34
2022-08-18T08:56:06.975Z,99052.31
2022-08-18T08:58:48.506Z,99063.41
2022-08-18T09:01:39.951Z,99066.97
2022-08-18T09:04:23.458Z,99065.78
2022-08-18T09:07:05.523Z,99067.78
2022-08-18T09:09:50.846Z,99078.06
2022-08-18T09:12:49.044Z,99070.94
2022-08-18T09:15:24.623Z,99066.16
2022-08-18T09:18:24.568Z,99076.38
2022-08-18T09:21:05.574Z,99069.59
2022-08-18T09:23:46.282Z,99075.91
2022-08-18T09:26:39.938Z,99072.81
2022-08-18T09:29:27.348Z,99076.41
2022-08-18T09:32:20.144Z,99078.34
2022-08-18T09:35:16.831Z,99073.16
2022-08-18T09:38:09.733Z,99070.38
2022-08-18T09:41:09.337Z,99073.50
2022-08-18T09:44:18.019Z,99075.09
2022-08-18T09:46:58.765Z,99061.94
2022-08-18T09:52:21.232Z,99045.94
2022-08-18T09:54:52.482Z,99038.50
2022-08-18T09:57:25.372Z,99029.94
2022-08-18T09:59:55.473Z,99026.75
2022-08-18T10:02:31.930Z,99025.88
2022-08-18T10:05:17.438Z,99017.94
2022-08-18T10:07:48.923Z,99010.72
2022-08-18T10:14:00.178Z,98993.97
2022-08-18T10:20:23.984Z,99006.81
2022-08-18T10:22:54.539Z,99006.66
2022-08-18T10:25:32.473Z,98994.44
2022-08-18T10:27:59.212Z,98996.09
2022-08-18T10:30:57.137Z,98995.19
2022-08-18T10:33:58.761Z,99010.59
2022-08-18T10:36:37.515Z,99012.97
2022-08-18T10:39:12.444Z,99020.28
2022-08-18T10:41:56.888Z,99032.69
2022-08-18T10:44:29.857Z,99029.53
2022-08-18T10:47:00.456Z,99033.44
2022-08-18T10:49:32.377Z,99038.63
2022-08-18T10:52:29.796Z,99039.13
2022-08-18T10:55:22.703Z,99045.56
2022-08-18T10:58:19.470Z,99062.28
2022-08-18T11:00:59.368Z,99062.66
2022-08-18T11:03:56.340Z,99062.19
2022-08-18T11:06:25.957Z,99061.38
2022-08-18T11:09:00.444Z,99071.28
2022-08-18T11:14:38.590Z,99079.66
2022-08-18T11:17:18.449Z,99059.88
2022-08-18T11:19:46.716Z,99057.44
2022-08-18T11:22:33.280Z,99044.63
2022-08-18T11:25:03.731Z,99042.19
2022-08-18T11:27:35.622Z,99040.50
2022-08-18T11:30:05.996Z,99026.88
2022-08-18T11:32:42.510Z,99022.81
2022-08-18T11:35:27.649Z,99020.66
2022-08-18T11:38:03.473Z,99022.63
2022-08-18T11:41:10.742Z,99021.41
2022-08-18T11:43:39.111Z,99027.97
2022-08-18T11:46:29.649Z,99015.03
2022-08-18T11:49:15.636Z,99012.09
2022-08-18T11:51:55.399Z,99007.34
2022-08-18T11:54:31.060Z,99002.09
2022-08-18T11:57:36.916Z,98993.31
2022-08-18T12:00:43.287Z,98984.00
2022-08-18T12:03:30.096Z,98994.09
2022-08-18T12:06:01.048Z,98994.41
2022-08-18T12:08:57.865Z,98991.59
2022-08-18T12:11:31.427Z,98984.88
2022-08-18T12:14:29.854Z,98978.34
2022-08-18T12:17:01.391Z,98980.31
2022-08-18T12:19:30.676Z,98973.50
2022-08-18T12:22:00.299Z,98974.66
2022-08-18T12:24:36.521Z,98971.19
2022-08-18T12:27:20.382Z,98981.59
2022-08-18T12:29:47.968Z,98979.84
2022-08-18T12:32:18.199Z,98976.72
2022-08-18T12:38:11.308Z,98978.72
2022-08-18T12:40:40.027Z,98984.34
2022-08-18T12:43:06.782Z,98974.19
2022-08-18T12:45:34.515Z,98976.28
2022-08-18T12:48:04.747Z,98961.94
2022-08-18T12:50:43.168Z,98960.06
2022-08-18T12:53:29.456Z,98965.44
2022-08-18T12:56:30.882Z,98969.72
2022-08-18T12:59:03.900Z,98958.09
2022-08-18T13:01:33.512Z,98964.72
2022-08-18T13:04:12.818Z,98958.09
2022-08-18T13:06:59.395Z,98954.81
2022-08-18T13:09:34.779Z,98965.97
2022-08-18T13:12:16.503Z,98959.31
2022-08-18T13:14:45.097Z,98957.25
2022-08-18T13:17:32.746Z,98969.28
2022-08-18T13:20:00.349Z,98956.34
2022-08-18T13:22:32.196Z,98966.22
2022-08-18T13:25:01.167Z,98964.91
2022-08-18T13:27:30.970Z,98961.47
2022-08-18T13:30:02.621Z,98965.63
2022-08-18T13:32:34.133Z,98965.44
2022-08-18T13:35:09.115Z,98977.88
2022-08-18T13:37:41.425Z,98969.41
2022-08-18T13:40:09.847Z,98971.78
2022-08-18T13:42:50.776Z,98964.41
2022-08-18T13:45:25.387Z,98963.25
2022-08-18T13:47:52.640Z,98947.31
2022-08-18T13:50:20.954Z,98957.25
2022-08-18T13:53:00.937Z,98947.88
2022-08-18T13:55:29.181Z,98945.22
2022-08-18T13:57:56.428Z,98937.41
2022-08-18T14:00:29.668Z,98935.81
2022-08-18T14:03:00.577Z,98946.91
2022-08-18T14:05:36.482Z,98946.09
2022-08-18T14:08:18.904Z,98943.47
2022-08-18T14:10:50.991Z,98944.63
2022-08-18T14:13:20.779Z,98934.84
2022-08-18T14:15:56.191Z,98943.72
2022-08-18T14:18:29.123Z,98951.44
2022-08-18T14:21:16.746Z,98930.28
2022-08-18T14:24:05.848Z,98927.06
2022-08-18T14:26:49.957Z,98912.97
2022-08-18T14:29:46.557Z,98926.34
2022-08-18T14:32:06.349Z,98912.38
2022-08-18T14:34:33.224Z,98903.53
2022-08-18T14:36:59.807Z,98894.53
2022-08-18T14:39:27.560Z,98884.97
2022-08-18T14:41:56.139Z,98887.09
2022-08-18T14:44:26.153Z,98892.97
2022-08-18T14:46:58.793Z,98887.06
2022-08-18T14:49:28.423Z,98887.59
2022-08-18T14:51:57.872Z,98885.56
2022-08-18T14:54:28.745Z,98890.16
2022-08-18T14:56:58.504Z,98886.09
2022-08-18T14:59:25.576Z,98890.75
2022-08-18T15:01:52.467Z,98896.41
2022-08-18T15:04:20.494Z,98904.13
2022-08-18T15:06:56.570Z,98892.25
2022-08-18T15:09:26.971Z,98895.41
2022-08-18T15:11:56.452Z,98895.91
2022-08-18T15:14:32.763Z,98907.19
2022-08-18T15:17:01.951Z,98896.34
2022-08-18T15:19:59.530Z,98900.91
2022-08-18T15:22:33.679Z,98905.91
2022-08-18T15:25:19.083Z,98907.63
2022-08-18T15:27:52.360Z,98906.13
2022-08-18T15:30:20.912Z,98912.94
2022-08-18T15:32:49.707Z,98917.00
2022-08-18T15:35:17.715Z,98913.31
2022-08-18T15:37:47.956Z,98914.88
2022-08-18T15:40:31.245Z,98912.22
2022-08-18T15:43:09.823Z,98924.66
2022-08-18T15:45:43.501Z,98912.22
2022-08-18T15:48:23.732Z,98916.03
2022-08-18T15:50:51.376Z,98914.50
2022-08-18T15:53:21.362Z,98915.91
2022-08-18T15:55:50.068Z,98919.72
2022-08-18T15:58:22.054Z,98915.63
2022-08-18T16:00:50.523Z,98911.59
2022-08-18T16:03:18.151Z,98903.78
2022-08-18T16:05:53.651Z,98910.22
2022-08-18T16:08:25.611Z,98906.75
2022-08-18T16:10:53.715Z,98916.81
2022-08-18T16:13:21.743Z,98921.88
2022-08-18T16:15:50.004Z,98910.38
2022-08-18T16:18:20.883Z,98908.47
2022-08-18T16:20:47.551Z,98911.06
2022-08-18T16:23:14.335Z,98916.59
2022-08-18T16:25:43.265Z,98910.81
2022-08-18T16:28:13.204Z,98917.19
2022-08-18T16:30:40.547Z,98908.53
2022-08-18T16:33:07.317Z,98918.97
2022-08-18T16:35:35.188Z,98914.41
2022-08-18T16:38:08.711Z,98916.50
2022-08-18T16:40:36.341Z,98915.44
2022-08-18T16:43:02.993Z,98914.63
2022-08-18T16:45:31.349Z,98924.19
2022-08-18T16:47:57.885Z,98921.84
2022-08-18T16:50:25.406Z,98919.91
2022-08-18T16:52:52.449Z,98914.00
2022-08-18T16:55:19.669Z,98912.38
2022-08-18T16:58:04.938Z,98903.63
2022-08-18T17:00:54.748Z,98906.06
2022-08-18T17:03:43.911Z,98908.47
2022-08-18T17:06:13.903Z,98899.91
2022-08-18T17:08:42.182Z,98903.19
2022-08-18T17:11:13.810Z,98896.00
2022-08-18T17:13:40.702Z,98892.16
2022-08-18T17:16:08.439Z,98894.59
2022-08-18T17:18:36.449Z,98891.41
2022-08-18T17:21:05.728Z,98886.31
2022-08-18T17:23:33.429Z,98886.38
2022-08-18T17:26:01.877Z,98887.22
2022-08-18T17:29:27.883Z,98891.72
2022-08-18T17:32:05.547Z,98894.16
2022-08-18T17:34:39.466Z,98895.00
2022-08-18T17:37:10.171Z,98894.25
2022-08-18T17:39:44.207Z,98892.75
2022-08-18T17:42:26.211Z,98896.00
2022-08-18T17:44:56.907Z,98895.78
2022-08-18T17:47:29.934Z,98897.19
2022-08-18T17:50:27.759Z,98889.84
2022-08-18T17:53:05.922Z,98896.09
2022-08-18T17:55:52.714Z,98896.28
2022-08-18T17:58:28.131Z,98896.81
2022-08-18T18:00:54.885Z,98899.34
2022-08-18T18:03:22.667Z,98903.88
2022-08-18T18:06:02.629Z,98900.00
2022-08-18T18:08:53.649Z,98902.09
2022-08-18T18:11:33.651Z,98904.91
2022-08-18T18:14:24.103Z,98904.97
2022-08-18T18:17:14.672Z,98909.09
2022-08-18T18:19:48.000Z,98912.38
2022-08-18T18:22:19.818Z,98915.63
2022-08-18T18:25:07.845Z,98907.00
2022-08-18T18:27:40.805Z,98920.13
2022-08-18T18:30:28.205Z,98917.00
2022-08-18T18:33:13.526Z,98924.59
2022-08-18T18:35:54.643Z,98919.09
2022-08-18T18:38:27.429Z,98924.69
2022-08-18T18:41:02.009Z,98930.22
2022-08-18T18:43:35.277Z,98934.25
2022-08-18T18:46:19.220Z,98935.13
2022-08-18T18:49:16.920Z,98935.22
2022-08-18T18:52:07.897Z,98938.47
2022-08-18T18:54:43.543Z,98939.31
2022-08-18T18:57:21.049Z,98944.13
2022-08-18T19:00:02.489Z,98944.97
2022-08-18T19:02:35.211Z,98946.59
2022-08-18T19:05:35.292Z,98947.44
2022-08-18T19:08:10.520Z,98950.66
2022-08-18T19:10:44.530Z,98949.97
2022-08-18T19:13:32.246Z,98949.97
2022-08-18T19:16:12.733Z,98946.09
2022-08-18T19:18:58.004Z,98949.72
2022-08-18T19:22:04.308Z,98954.13
2022-08-18T19:24:42.841Z,98959.69
2022-08-18T19:27:22.323Z,98961.28
2022-08-18T19:29:54.234Z,98966.88
2022-08-18T19:32:35.889Z,98953.09
2022-08-18T19:35:04.364Z,98964.56
2022-08-18T19:38:19.137Z,98970.13
2022-08-18T19:40:51.249Z,98973.31
2022-08-18T19:43:47.341Z,98977.25
2022-08-18T19:46:21.866Z,98983.63
2022-08-18T19:49:16.560Z,98989.97
2022-08-18T19:51:44.692Z,98986.81
2022-08-18T19:54:14.274Z,98989.56
2022-08-18T19:56:58.111Z,98980.91
2022-08-18T19:59:43.511Z,98980.50
2022-08-18T20:02:48.328Z,98988.78
2022-08-18T20:05:22.693Z,98986.84
2022-08-18T20:08:07.880Z,98987.63
2022-08-18T20:10:59.227Z,98989.63
2022-08-18T20:13:38.425Z,98997.91
2022-08-18T20:16:10.687Z,99001.84
2022-08-18T20:18:45.072Z,99001.44
2022-08-18T20:21:11.598Z,98997.88
2022-08-18T20:23:59.613Z,99004.22
2022-08-18T20:26:37.650Z,98999.88
2022-08-18T20:29:33.216Z,99011.72
2022-08-18T20:32:02.897Z,99005.41
2022-08-18T20:34:32.643Z,99005.81
2022-08-18T20:37:01.560Z,99001.84
2022-08-18T20:39:48.318Z,99003.44
2022-08-18T20:42:20.616Z,99003.84
2022-08-18T20:44:50.321Z,98994.78
2022-08-18T20:47:42.519Z,99001.47
2022-08-18T20:50:18.360Z,98998.72
2022-08-18T20:53:03.318Z,99016.84
2022-08-18T20:55:38.374Z,99015.66
2022-08-18T20:58:14.660Z,99009.72
2022-08-18T21:00:45.237Z,99010.91
2022-08-18T21:03:14.769Z,99008.94
2022-08-18T21:05:44.287Z,99015.63
2022-08-18T21:08:16.822Z,99017.63
2022-08-18T21:10:54.435Z,99022.34
2022-08-18T21:13:46.049Z,99017.59
2022-08-18T21:16:37.773Z,99019.97
2022-08-18T21:19:18.199Z,99026.25
2022-08-18T21:21:49.382Z,99029.78
2022-08-18T21:24:26.911Z,99027.44
2022-08-18T21:26:59.969Z,99030.19
2022-08-18T21:29:32.880Z,99026.22
2022-08-18T21:32:20.209Z,99035.25
2022-08-18T21:34:47.725Z,99039.53
2022-08-18T21:37:17.174Z,99041.47
2022-08-18T21:39:51.879Z,99045.00
2022-08-18T21:42:39.225Z,99051.25
2022-08-18T21:45:06.957Z,99055.97
2022-08-18T21:47:35.106Z,99055.94
2022-08-18T21:50:14.756Z,99059.06
2022-08-18T21:53:00.100Z,99055.94
2022-08-18T21:55:35.633Z,99065.00
2022-08-18T21:58:33.985Z,99065.38
2022-08-18T22:01:16.867Z,99071.66
2022-08-18T22:03:59.774Z,99074.81
2022-08-18T22:06:26.430Z,99067.69
2022-08-18T22:09:29.505Z,99073.97
2022-08-18T22:12:33.407Z,99070.81
2022-08-18T22:15:12.734Z,99081.03
2022-08-18T22:18:05.943Z,99072.72
2022-08-18T22:20:44.686Z,99081.81
2022-08-18T22:23:33.133Z,99090.44
2022-08-18T22:26:15.010Z,99090.38
2022-08-18T22:28:58.932Z,99087.19
2022-08-18T22:31:29.493Z,99083.25
2022-08-18T22:33:56.565Z,99076.13
2022-08-18T22:36:29.622Z,99076.88
2022-08-18T22:38:56.250Z,99073.69
2022-08-18T22:41:23.514Z,99076.00
2022-08-18T22:43:54.785Z,99082.28
2022-08-18T22:46:24.294Z,99083.00
2022-08-18T22:48:52.331Z,99079.03
2022-08-18T22:51:23.037Z,99074.28
2022-08-18T22:53:50.106Z,99078.19
2022-08-18T22:56:17.572Z,99073.06
2022-08-18T22:59:00.928Z,99082.50
2022-08-18T23:01:41.970Z,99087.19
2022-08-18T23:04:08.585Z,99085.16
2022-08-18T23:06:35.715Z,99093.03
2022-08-18T23:09:02.666Z,99088.25
2022-08-18T23:11:31.250Z,99089.81
2022-08-18T23:14:00.517Z,99086.59
2022-08-18T23:16:31.719Z,99091.19
2022-08-18T23:19:02.100Z,99095.81
2022-08-18T23:21:34.885Z,99088.72
2022-08-18T23:24:04.724Z,99095.75
2022-08-18T23:26:34.152Z,99098.81
2022-08-18T23:29:01.044Z,99097.56
2022-08-18T23:31:27.864Z,99096.78
2022-08-18T23:33:54.437Z,99094.00
2022-08-18T23:36:21.020Z,99104.94
2022-08-18T23:38:47.584Z,99101.38
2022-08-18T23:41:16.386Z,99113.47
2022-08-18T23:43:43.017Z,99111.50
2022-08-18T23:46:21.957Z,99113.34
2022-08-18T23:48:52.844Z,99122.75
2022-08-18T23:51:31.379Z,99117.97
2022-08-18T23:54:02.073Z,99115.22
2022-08-18T23:56:30.943Z,99131.28
2022-08-18T23:58:58.288Z,99132.81
